Time;durP1;ratioP1;P1;durP2;ratioP2;P2;SDS_P1;SDS_P2;PMS_P1;PMS_P2;Temp;Humidity;BMP_temperature;BMP_pressure;BME280_temperature;BME280_humidity;BME280_pressure;Samples;Min_cycle;Max_cycle;Signal;HPM_P1;HPM_P2
2021/11/30 00:01:58;;;;;;;14.80;4.97;;;-0.30;99.90;;;-2.17;100.00;99742.38;4920023;28;20095;-80
2021/11/30 00:04:29;;;;;;;12.98;5.03;;;-0.20;99.90;;;-2.13;100.00;99744.91;4915335;28;20031;-79
2021/11/30 00:06:58;;;;;;;11.77;5.45;;;-0.20;99.90;;;-2.12;100.00;99735.44;4920974;28;20526;-78
2021/11/30 00:12:15;;;;;;;11.57;5.03;;;-0.20;99.90;;;-2.09;100.00;99735.44;4855258;28;20095;-79
2021/11/30 00:14:44;;;;;;;10.40;4.43;;;-0.20;99.90;;;-2.06;100.00;99736.22;4905263;28;20100;-78
2021/11/30 00:17:12;;;;;;;13.20;4.80;;;-0.10;99.90;;;-2.03;100.00;99732.78;4903270;28;20752;-78
2021/11/30 00:19:41;;;;;;;9.90;4.45;;;-0.10;99.90;;;-1.97;100.00;99731.84;4918215;28;20047;-78
2021/11/30 00:22:10;;;;;;;12.40;5.30;;;-0.10;99.90;;;-1.96;100.00;99726.66;4893671;28;20023;-79
2021/11/30 00:24:37;;;;;;;14.70;5.25;;;0.00;99.90;;;-1.91;100.00;99724.88;4926619;28;20042;-78
2021/11/30 00:27:05;;;;;;;15.13;5.70;;;0.00;99.90;;;-1.90;100.00;99723.16;4936437;28;20106;-82
2021/11/30 00:29:35;;;;;;;16.40;5.00;;;0.00;99.90;;;-1.83;100.00;99723.94;4877989;28;20037;-77
2021/11/30 00:32:02;;;;;;;13.07;5.57;;;0.10;99.90;;;-1.76;100.00;99728.16;4970218;28;20042;-78
2021/11/30 00:34:28;;;;;;;13.02;5.10;;;0.20;99.90;;;-1.69;100.00;99727.19;4922479;28;20053;-77
2021/11/30 00:36:54;;;;;;;11.65;4.55;;;0.20;99.90;;;-1.64;100.00;99715.09;4882464;28;20049;-79
2021/11/30 00:39:21;;;;;;;9.13;4.25;;;0.30;99.90;;;-1.59;100.00;99721.06;4862723;28;20035;-79
2021/11/30 00:41:58;;;;;;;11.43;5.07;;;0.40;99.90;;;-1.52;100.00;99719.25;4892440;28;20034;-78
2021/11/30 00:44:28;;;;;;;14.05;5.20;;;0.40;99.90;;;-1.48;100.00;99711.44;4916584;28;20391;-78
2021/11/30 00:46:56;;;;;;;14.13;5.82;;;0.40;99.90;;;-1.46;100.00;99704.50;4890552;28;20478;-79
2021/11/30 00:49:26;;;;;;;11.60;4.88;;;0.50;99.90;;;-1.47;100.00;99705.41;4907374;28;20510;-79
2021/11/30 00:52:03;;;;;;;9.95;4.65;;;0.50;99.90;;;-1.50;100.00;99699.41;4899570;28;20069;-78
2021/11/30 00:54:30;;;;;;;10.38;4.80;;;0.40;99.90;;;-1.50;100.00;99700.25;4903132;28;20026;-79
2021/11/30 00:57:02;;;;;;;16.63;4.75;;;0.50;99.90;;;-1.49;100.00;99689.09;4929534;28;20077;-79
2021/11/30 00:59:28;;;;;;;13.27;5.55;;;0.40;99.90;;;-1.50;100.00;99689.94;4920642;28;20069;-78
2021/11/30 01:01:58;;;;;;;10.70;4.88;;;0.40;99.90;;;-1.52;100.00;99690.84;4899135;28;20479;-78
2021/11/30 01:04:33;;;;;;;10.30;4.63;;;;;;;-1.56;100.00;99689.16;4911286;28;20057;-80
2021/11/30 01:07:00;;;;;;;13.77;4.80;;;0.30;99.90;;;-1.57;100.00;99685.75;4884359;28;21232;-79
2021/11/30 01:09:27;;;;;;;11.55;4.65;;;;;;;-1.57;100.00;99688.31;4848054;28;20027;-79
2021/11/30 01:11:57;;;;;;;12.85;5.10;;;0.40;99.90;;;-1.55;100.00;99684.00;4887673;28;20070;-79
2021/11/30 01:15:40;;;;;;;12.55;4.57;;;0.40;99.90;;;-1.53;100.00;99664.19;5039143;27;20377;-79
2021/11/30 01:18:07;;;;;;;19.23;5.90;;;0.40;99.90;;;-1.55;100.00;99655.59;4986465;28;20052;-79
2021/11/30 01:20:36;;;;;;;21.70;6.00;;;0.40;99.90;;;-1.56;100.00;99650.44;5008637;28;20021;-79
2021/11/30 01:23:03;;;;;;;13.75;5.18;;;0.30;99.90;;;-1.52;100.00;99647.78;4948957;28;20060;-79
2021/11/30 01:25:29;;;;;;;14.18;5.50;;;0.40;99.90;;;-1.47;100.00;99648.59;4982213;28;20047;-79
2021/11/30 01:28:04;;;;;;;11.15;5.93;;;0.40;99.90;;;-1.49;100.00;99645.19;4964984;28;20480;-79
2021/11/30 01:30:31;;;;;;;14.10;4.93;;;0.40;99.90;;;-1.50;100.00;99638.31;4967421;28;20041;-79
2021/11/30 01:32:58;;;;;;;15.35;5.85;;;0.40;99.90;;;-1.50;100.00;99643.47;4948171;28;20026;-79
2021/11/30 01:35:27;;;;;;;15.88;5.20;;;0.40;99.90;;;-1.46;100.00;99634.81;4973980;28;20112;-79
2021/11/30 01:37:54;;;;;;;12.93;5.57;;;0.40;99.90;;;-1.46;100.00;99619.31;4981752;28;20471;-80
2021/11/30 01:40:24;;;;;;;12.07;4.40;;;0.40;99.90;;;-1.45;100.00;99617.56;4938023;28;20022;-80
2021/11/30 01:42:54;;;;;;;18.05;6.15;;;0.50;99.90;;;-1.41;100.00;99615.81;4935939;28;20018;-81
2021/11/30 01:51:01;;;;;;;11.95;5.05;;;0.60;99.90;;;-1.31;100.00;99599.28;4979601;28;20040;-78
2021/11/30 01:53:29;;;;;;;12.40;4.50;;;0.60;99.90;;;-1.25;100.00;99592.28;4992713;28;20037;-78
2021/11/30 01:55:57;;;;;;;15.02;5.47;;;0.70;99.90;;;-1.16;100.00;99582.69;4996400;28;20084;-79
2021/11/30 01:58:24;;;;;;;14.02;4.70;;;0.70;99.90;;;-1.13;100.00;99578.31;4938869;28;20125;-78
2021/11/30 02:00:50;;;;;;;14.75;5.05;;;0.80;99.90;;;-1.05;100.00;99567.84;5003652;28;20029;-79
2021/11/30 02:03:16;;;;;;;15.82;5.35;;;0.80;99.90;;;-1.02;100.00;99546.28;4980263;28;20024;-78
2021/11/30 02:05:43;;;;;;;13.45;5.07;;;0.80;99.90;;;-1.02;100.00;99538.53;4958542;28;20025;-78
2021/11/30 02:08:12;;;;;;;15.77;4.93;;;0.80;99.90;;;-1.04;100.00;99529.09;4988140;28;20034;-78
2021/11/30 02:10:39;;;;;;;14.25;4.55;;;0.90;99.90;;;-1.01;100.00;99514.41;4987131;28;20032;-79
2021/11/30 02:13:05;;;;;;;14.02;5.25;;;0.80;99.90;;;-1.02;100.00;99500.59;5029277;28;20060;-78
2021/11/30 02:15:37;;;;;;;12.82;4.50;;;0.80;99.90;;;-1.05;100.00;99480.00;5002487;28;20049;-78
2021/11/30 02:18:12;;;;;;;11.68;4.07;;;0.80;99.90;;;-1.06;100.00;99466.25;5001302;28;20033;-79
2021/11/30 02:20:46;;;;;;;10.75;4.35;;;0.80;99.90;;;-1.06;100.00;99462.78;4973522;28;20119;-78
2021/11/30 02:23:32;;;;;;;11.73;5.07;;;0.80;99.90;;;-1.10;100.00;99450.81;4960071;28;20028;-78
2021/11/30 02:26:02;;;;;;;13.18;4.85;;;0.70;99.90;;;-1.12;100.00;99437.94;4994431;28;20036;-78
2021/11/30 02:28:31;;;;;;;15.85;5.50;;;;;;;-1.11;100.00;99429.28;4965467;28;20481;-78
2021/11/30 02:30:57;;;;;;;16.77;6.35;;;0.80;99.90;;;-1.13;100.00;99425.91;4974915;28;20041;-79
2021/11/30 02:33:23;;;;;;;17.20;6.15;;;0.80;99.90;;;-1.14;100.00;99413.03;4968256;28;20033;-78
2021/11/30 02:35:50;;;;;;;17.48;5.47;;;0.80;99.90;;;-1.12;100.00;99409.53;4977776;28;20035;-78
2021/11/30 02:38:16;;;;;;;13.90;5.43;;;0.80;99.90;;;-1.09;100.00;99404.28;4993421;28;20681;-78
2021/11/30 02:40:42;;;;;;;17.42;5.28;;;0.80;99.90;;;-1.10;100.00;99400.00;4978298;28;20432;-78
2021/11/30 02:43:09;;;;;;;21.13;6.22;;;0.80;99.90;;;-1.10;100.00;99399.13;4956528;28;20024;-78
2021/11/30 02:45:35;;;;;;;15.90;5.70;;;0.70;99.90;;;-1.10;100.00;99381.94;4959307;28;20072;-78
2021/11/30 02:48:02;;;;;;;17.60;5.40;;;0.70;99.90;;;-1.15;100.00;99370.81;4970223;28;20116;-78
2021/11/30 02:50:37;;;;;;;19.02;6.15;;;0.70;99.90;;;-1.17;100.00;99367.41;5003934;28;20025;-78
2021/11/30 02:53:04;;;;;;;17.40;6.50;;;0.70;99.90;;;-1.17;100.00;99364.00;4969026;28;20104;-79
2021/11/30 02:55:30;;;;;;;17.05;6.28;;;0.70;99.90;;;-1.16;100.00;99358.81;4980926;28;20093;-78
2021/11/30 02:57:56;;;;;;;24.20;6.88;;;0.70;99.90;;;-1.18;100.00;99350.25;4981500;28;20041;-78
2021/11/30 03:00:22;;;;;;;20.77;7.50;;;0.70;99.90;;;-1.15;100.00;99339.81;4985858;28;20035;-78
2021/11/30 03:02:48;;;;;;;23.85;7.15;;;0.70;99.90;;;-1.15;100.00;99333.81;4976784;28;20029;-79
2021/11/30 03:05:22;;;;;;;21.90;7.30;;;0.70;99.90;;;-1.14;100.00;99326.03;4982362;28;20111;-79
2021/11/30 03:07:48;;;;;;;25.90;7.28;;;0.70;99.90;;;-1.13;100.00;99327.72;4950042;28;20030;-79
2021/11/30 03:10:18;;;;;;;21.60;7.13;;;0.80;99.90;;;-1.09;100.00;99318.19;4997392;28;20025;-78
2021/11/30 03:12:48;;;;;;;21.58;7.35;;;0.80;99.90;;;-1.05;100.00;99322.41;4974566;28;20051;-78
2021/11/30 03:15:23;;;;;;;24.60;8.60;;;0.80;99.90;;;-1.05;100.00;99305.16;4953103;28;20037;-79
2021/11/30 03:17:50;;;;;;;20.48;7.10;;;0.80;99.90;;;-1.02;100.00;99298.25;4976244;28;20540;-78
2021/11/30 03:20:17;;;;;;;22.50;8.63;;;0.90;99.90;;;-0.99;100.00;99291.28;4935175;28;20040;-79
2021/11/30 03:22:46;;;;;;;25.83;8.02;;;0.80;99.90;;;-1.00;100.00;99280.97;4956478;28;20676;-78
2021/11/30 03:25:16;;;;;;;23.73;7.30;;;0.90;99.90;;;-0.99;100.00;99268.03;4977962;28;20446;-78
2021/11/30 03:27:47;;;;;;;29.80;7.93;;;0.90;99.90;;;-0.93;100.00;99261.84;4985518;28;20022;-79
2021/11/30 03:30:15;;;;;;;23.33;8.77;;;0.90;99.90;;;-0.85;100.00;99244.44;4987463;28;20033;-78
2021/11/30 03:35:28;;;;;;;24.25;7.85;;;1.00;99.90;;;-0.84;100.00;99220.31;5025868;28;20107;-78
2021/11/30 03:37:55;;;;;;;18.70;7.35;;;1.00;99.90;;;-0.86;100.00;99207.41;4969111;28;20353;-79
2021/11/30 03:40:21;;;;;;;19.67;7.05;;;1.00;99.90;;;-0.84;100.00;99191.88;4984005;28;22651;-79
2021/11/30 03:42:47;;;;;;;26.35;8.20;;;1.00;99.90;;;-0.84;100.00;99189.28;4964696;28;20430;-79
2021/11/30 03:45:19;;;;;;;23.58;7.47;;;1.00;99.90;;;-0.87;100.00;99176.44;4969328;28;20033;-78
2021/11/30 03:47:45;;;;;;;21.85;7.88;;;1.00;99.90;;;-0.89;100.00;99165.28;4951789;28;20056;-79
2021/11/30 03:50:11;;;;;;;26.75;8.30;;;1.00;99.90;;;-0.91;100.00;99164.47;4978239;28;20474;-78
2021/11/30 03:52:38;;;;;;;26.38;8.80;;;1.00;99.90;;;-0.93;100.00;99155.91;4976427;28;20749;-79
2021/11/30 03:55:11;;;;;;;25.67;8.52;;;0.90;99.90;;;-0.95;100.00;99158.56;4998836;28;20394;-78
2021/11/30 03:57:38;;;;;;;29.50;8.35;;;;;;;-0.96;100.00;99153.41;4977056;28;20116;-78
2021/11/30 04:00:10;;;;;;;22.20;8.63;;;0.90;99.90;;;-0.98;100.00;99145.69;4979935;28;20692;-78
2021/11/30 04:02:39;;;;;;;26.13;8.15;;;0.90;99.90;;;-0.99;100.00;99143.13;4959611;28;20049;-79
2021/11/30 04:05:08;;;;;;;21.52;7.65;;;0.90;99.90;;;-0.98;100.00;99139.69;4944905;28;20040;-78
2021/11/30 04:07:35;;;;;;;27.02;9.48;;;0.90;99.90;;;-1.00;100.00;99134.53;4960026;28;20036;-78
2021/11/30 04:10:03;;;;;;;26.10;8.23;;;0.90;99.90;;;-0.96;100.00;99106.91;4968232;28;20079;-77
2021/11/30 04:12:31;;;;;;;24.90;8.57;;;0.90;99.90;;;-0.99;100.00;99113.00;4958716;28;20389;-79
2021/11/30 04:14:57;;;;;;;26.20;8.82;;;0.90;99.90;;;-1.00;100.00;99103.53;4980086;28;20424;-79
2021/11/30 04:17:23;;;;;;;29.33;9.10;;;0.90;99.90;;;-1.00;100.00;99094.94;4984368;28;20034;-78
2021/11/30 04:19:49;;;;;;;33.42;10.27;;;0.90;99.90;;;-1.00;100.00;99089.78;4978595;28;20457;-78
2021/11/30 04:22:16;;;;;;;33.17;10.18;;;0.80;99.90;;;-0.99;100.00;99081.13;4963153;28;20109;-79
2021/11/30 04:24:45;;;;;;;36.55;10.90;;;1.50;99.90;;;-0.96;100.00;99078.47;4950857;28;20488;-79
2021/11/30 04:27:13;;;;;;;28.95;9.18;;;0.90;99.90;;;-1.01;100.00;99070.00;4946346;28;20042;-79
2021/11/30 04:29:42;;;;;;;31.25;8.80;;;0.80;99.90;;;-1.00;100.00;99057.03;4971575;28;20030;-78
2021/11/30 04:32:09;;;;;;;28.10;8.20;;;0.90;99.90;;;-0.99;100.00;99052.72;4959825;28;20041;-78
2021/11/30 04:34:35;;;;;;;30.67;10.35;;;0.80;99.90;;;-0.99;100.00;99044.97;4980863;28;20456;-79
2021/11/30 04:37:02;;;;;;;23.13;8.05;;;0.90;99.90;;;-1.01;100.00;99036.44;4998419;28;20033;-79
2021/11/30 04:39:28;;;;;;;23.15;8.07;;;0.80;99.90;;;-1.02;100.00;99026.97;4969801;28;20416;-79
2021/11/30 04:41:54;;;;;;;23.20;8.60;;;0.90;99.90;;;-1.01;100.00;99020.94;4974425;28;20113;-78
2021/11/30 04:44:21;;;;;;;29.83;9.65;;;0.80;99.90;;;-1.00;100.00;99001.94;4972510;28;20022;-79
2021/11/30 04:47:00;;;;;;;24.23;8.75;;;0.80;99.90;;;-1.00;100.00;99013.13;4974976;28;20033;-79
2021/11/30 04:52:04;;;;;;;24.00;9.05;;;0.90;99.90;;;-0.96;100.00;98983.72;4940976;28;20023;-79
2021/11/30 04:54:30;;;;;;;28.67;10.02;;;0.90;99.90;;;-0.94;100.00;98975.94;4957142;28;20061;-79
2021/11/30 04:56:56;;;;;;;34.90;10.23;;;0.90;99.90;;;-0.95;100.00;98959.59;4939113;28;20030;-79
2021/11/30 04:59:30;;;;;;;24.02;9.05;;;;;;;-0.94;100.00;98957.84;4939036;28;20026;-79
2021/11/30 05:01:58;;;;;;;24.65;9.02;;;1.00;99.90;;;-0.85;100.00;98947.25;4962783;28;20022;-79
2021/11/30 05:04:24;;;;;;;30.35;9.00;;;1.00;99.90;;;-0.87;100.00;98947.28;4944846;28;20032;-79
2021/11/30 05:06:55;;;;;;;27.25;9.45;;;1.00;99.90;;;-0.88;100.00;98945.59;4941650;28;20045;-79
2021/11/30 05:09:21;;;;;;;24.70;8.88;;;1.00;99.90;;;-0.87;100.00;98936.94;4947682;28;20045;-79
2021/11/30 05:11:47;;;;;;;26.95;9.20;;;1.00;99.90;;;-0.82;100.00;98911.00;4943309;28;20026;-80
2021/11/30 05:14:13;;;;;;;28.85;10.48;;;1.10;99.90;;;-0.77;100.00;98909.13;4955709;28;20121;-79
2021/11/30 05:16:40;;;;;;;32.15;9.80;;;1.00;99.90;;;-0.81;100.00;98891.16;4987646;28;20665;-80
2021/11/30 05:19:07;;;;;;;28.98;9.13;;;1.10;99.90;;;-0.73;100.00;98887.47;4934123;28;20091;-80
2021/11/30 05:21:36;;;;;;;27.25;9.80;;;1.10;99.90;;;-0.76;100.00;98877.19;4970414;28;20045;-80
2021/11/30 05:24:04;;;;;;;29.98;11.18;;;1.10;99.90;;;-0.71;100.00;98864.16;4964760;28;20093;-79
2021/11/30 05:26:32;;;;;;;25.63;9.30;;;1.10;99.90;;;-0.72;100.00;98842.63;4970015;28;20041;-79
2021/11/30 05:28:58;;;;;;;28.70;9.00;;;1.10;99.90;;;-0.70;100.00;98843.41;4987790;28;20983;-79
2021/11/30 05:31:28;;;;;;;30.63;10.77;;;1.10;99.90;;;-0.70;100.00;98827.91;4961323;28;20029;-79
2021/11/30 05:33:56;;;;;;;28.33;10.50;;;1.20;99.90;;;-0.65;100.00;98822.59;4938540;28;20035;-79
2021/11/30 05:36:22;;;;;;;31.60;11.20;;;1.20;99.90;;;-0.65;100.00;98810.53;4951371;28;20037;-79
2021/11/30 05:38:49;;;;;;;29.90;9.90;;;1.20;99.90;;;-0.59;100.00;98793.13;4975223;28;20029;-79
2021/11/30 05:41:17;;;;;;;27.00;9.98;;;1.20;99.90;;;-0.59;100.00;98785.38;4940313;28;20029;-80
2021/11/30 05:43:46;;;;;;;27.73;10.40;;;1.30;99.90;;;-0.55;100.00;98768.88;4910008;28;20035;-79
2021/11/30 05:46:13;;;;;;;34.47;10.10;;;1.30;99.90;;;-0.54;100.00;98758.50;4930793;28;20056;-80
2021/11/30 05:48:39;;;;;;;33.10;10.75;;;1.40;99.90;;;-0.46;100.00;98745.28;4963399;28;20026;-79
2021/11/30 05:51:05;;;;;;;31.73;11.65;;;1.40;99.90;;;-0.43;100.00;98740.88;4972613;28;20030;-79
2021/11/30 05:53:33;;;;;;;32.15;11.20;;;1.40;99.90;;;-0.42;100.00;98723.59;4949017;28;20164;-80
2021/11/30 05:56:04;;;;;;;29.42;10.73;;;1.40;99.90;;;-0.38;100.00;98707.09;4908884;28;20045;-80
2021/11/30 05:58:35;;;;;;;25.15;9.32;;;1.40;99.90;;;-0.34;100.00;98700.09;4930743;28;20068;-79
2021/11/30 06:01:09;;;;;;;30.38;10.48;;;1.50;99.90;;;-0.34;100.00;98693.16;4951180;28;20029;-80
2021/11/30 06:04:19;;;;;;;27.38;10.18;;;1.50;99.90;;;-0.34;100.00;98674.22;4937583;28;20028;-79
2021/11/30 06:06:35;;;;;;;28.23;9.93;;;1.50;99.90;;;-0.35;100.00;98662.19;4966912;28;20032;-80
2021/11/30 06:09:05;;;;;;;28.58;10.73;;;1.50;99.90;;;-0.33;100.00;98655.22;4965194;28;20654;-80
2021/11/30 06:11:31;;;;;;;31.40;10.73;;;1.40;99.90;;;-0.39;100.00;98632.16;4951054;28;20068;-80
2021/11/30 06:13:58;;;;;;;25.25;9.05;;;1.40;99.90;;;-0.44;100.00;98629.72;4941311;28;20053;-80
2021/11/30 06:16:26;;;;;;;25.20;9.05;;;1.30;99.90;;;-0.52;100.00;98622.25;4957640;28;20052;-79
2021/11/30 06:19:00;;;;;;;27.08;10.60;;;;;;;-0.56;100.00;98610.34;4949994;28;20026;-80
2021/11/30 06:21:26;;;;;;;30.75;10.00;;;1.30;99.90;;;-0.61;100.00;98607.06;4943487;28;20046;-79
2021/11/30 06:23:53;;;;;;;27.73;11.10;;;1.10;99.90;;;-0.69;100.00;98593.53;4967949;28;20021;-79
2021/11/30 06:26:19;;;;;;;31.05;11.07;;;1.10;99.90;;;-0.70;100.00;98582.38;4994023;28;20121;-80
2021/11/30 06:28:45;;;;;;;29.50;10.02;;;1.10;99.90;;;-0.70;100.00;98582.38;4968113;28;20021;-81
2021/11/30 06:31:14;;;;;;;29.02;11.27;;;;;;;-0.65;100.00;98574.44;4945926;28;20025;-80
2021/11/30 06:33:41;;;;;;;25.63;9.27;;;1.20;99.90;;;-0.64;100.00;98570.97;4961256;28;20045;-79
2021/11/30 06:36:07;;;;;;;29.00;10.65;;;1.20;99.90;;;-0.60;100.00;98569.13;4960989;28;20058;-79
2021/11/30 06:38:41;;;;;;;26.63;10.43;;;;;;;-0.60;100.00;98567.41;4978356;28;20018;-80
2021/11/30 06:41:07;;;;;;;33.28;10.77;;;1.20;99.90;;;-0.64;100.00;98551.13;4980847;28;20112;-79
2021/11/30 06:43:33;;;;;;;30.23;10.93;;;1.20;99.90;;;-0.64;100.00;98555.47;4977703;28;20915;-80
2021/11/30 06:45:59;;;;;;;32.03;10.88;;;1.20;99.90;;;-0.67;100.00;98535.75;5001369;28;20065;-80
2021/11/30 06:48:25;;;;;;;26.10;8.65;;;1.10;99.90;;;-0.66;100.00;98537.44;4969513;28;20436;-79
2021/11/30 06:50:59;;;;;;;29.50;9.52;;;1.10;99.90;;;-0.65;100.00;98538.25;4926408;28;20045;-80
2021/11/30 06:53:30;;;;;;;23.75;9.18;;;1.20;99.90;;;-0.69;100.00;98516.00;4897418;28;20877;-79
2021/11/30 06:56:00;;;;;;;22.98;9.20;;;;;;;-0.75;100.00;98511.94;4931095;28;20044;-80
2021/11/30 06:58:26;;;;;;;22.48;8.57;;;1.00;99.90;;;-0.80;100.00;98510.38;4953804;28;20041;-79
2021/11/30 07:00:52;;;;;;;28.63;9.85;;;1.00;99.90;;;-0.84;100.00;98507.09;4985313;28;20050;-80
2021/11/30 07:03:21;;;;;;;21.00;7.72;;;1.00;99.90;;;-0.79;100.00;98502.59;4935272;28;20091;-79
2021/11/30 07:06:08;;;;;;;26.00;9.38;;;1.10;99.90;;;-0.76;100.00;98499.88;4969545;28;20478;-80
2021/11/30 07:08:54;;;;;;;24.27;8.82;;;1.00;99.90;;;-0.78;100.00;98500.84;4953585;28;20049;-79
2021/11/30 07:14:07;;;;;;;23.30;7.80;;;1.10;99.90;;;-0.70;100.00;98488.50;4967646;28;19967;-80
2021/11/30 07:16:34;;;;;;;18.77;7.55;;;1.20;99.90;;;-0.62;100.00;98470.97;4933201;28;20037;-80
2021/11/30 07:19:00;;;;;;;17.25;6.93;;;1.20;99.90;;;-0.54;100.00;98473.25;4906757;28;20026;-79
2021/11/30 07:21:28;;;;;;;13.85;6.30;;;1.40;99.90;;;-0.39;100.00;98472.66;4974036;28;20030;-79
2021/11/30 07:23:58;;;;;;;16.80;6.72;;;1.50;99.90;;;-0.34;100.00;98481.09;4915476;28;20042;-78
2021/11/30 07:26:26;;;;;;;14.02;6.05;;;1.50;99.90;;;-0.29;100.00;98468.84;4956239;28;20021;-79
2021/11/30 07:28:52;;;;;;;12.82;6.00;;;1.60;99.90;;;-0.17;100.00;98471.84;4938876;28;20057;-79
2021/11/30 07:31:19;;;;;;;12.18;5.18;;;1.70;99.90;;;-0.05;100.00;98476.53;4976232;28;20095;-79
2021/11/30 07:33:48;;;;;;;12.55;5.40;;;1.80;99.90;;;0.00;100.00;98469.47;4965785;28;20113;-79
2021/11/30 07:36:18;;;;;;;13.48;5.95;;;1.80;99.90;;;0.03;100.00;98452.97;4975745;28;20051;-79
2021/11/30 07:38:48;;;;;;;7.38;3.75;;;1.90;99.90;;;0.10;100.00;98444.03;4965071;28;20033;-79
2021/11/30 07:41:16;;;;;;;110.05;12.45;;;1.90;99.90;;;0.13;100.00;98443.91;4986517;28;20099;-80
2021/11/30 07:43:47;;;;;;;10.85;5.20;;;2.00;99.90;;;0.19;100.00;98397.94;4941490;28;20039;-80
2021/11/30 07:46:13;;;;;;;8.70;4.70;;;2.00;99.90;;;0.19;100.00;98418.66;4959553;28;20418;-79
2021/11/30 07:48:39;;;;;;;10.85;4.50;;;2.00;99.90;;;0.23;100.00;98411.56;4885661;28;20360;-79
2021/11/30 07:51:07;;;;;;;10.48;4.78;;;2.10;99.90;;;0.30;100.00;98413.03;4926393;28;20023;-79
2021/11/30 07:53:36;;;;;;;10.50;4.30;;;2.10;99.90;;;0.36;100.00;98414.50;4954288;28;20034;-80
2021/11/30 07:56:02;;;;;;;9.07;4.00;;;2.20;99.90;;;0.41;100.00;98409.97;5001661;28;20049;-80
2021/11/30 07:58:28;;;;;;;11.52;3.90;;;2.30;99.90;;;0.47;100.00;98401.94;4970180;28;20025;-80
2021/11/30 08:00:55;;;;;;;6.10;3.40;;;2.30;99.90;;;0.57;100.00;98386.84;4996538;28;20029;-80
2021/11/30 08:03:22;;;;;;;6.93;3.22;;;2.40;99.90;;;0.68;100.00;98383.81;4936564;28;20033;-80
2021/11/30 08:05:51;;;;;;;6.65;3.00;;;2.50;99.90;;;0.73;100.00;98366.31;4956184;28;20037;-81
2021/11/30 08:08:18;;;;;;;6.70;3.60;;;2.50;99.90;;;0.78;100.00;98354.84;4947601;28;20092;-80
2021/11/30 08:10:44;;;;;;;5.07;2.70;;;;;;;0.86;100.00;98353.66;4919257;28;20596;-80
2021/11/30 08:13:10;;;;;;;3.92;2.60;;;2.70;99.90;;;0.88;100.00;98352.66;4940584;28;20019;-80
2021/11/30 08:15:37;;;;;;;4.32;2.53;;;2.70;99.90;;;0.94;100.00;98351.56;4905011;28;20034;-80
2021/11/30 08:18:07;;;;;;;5.35;2.72;;;2.70;99.90;;;0.96;100.00;98336.78;4938914;28;20045;-81
2021/11/30 08:20:34;;;;;;;5.07;2.83;;;2.80;99.90;;;0.97;100.00;98334.13;4919474;28;20604;-79
2021/11/30 08:23:00;;;;;;;4.93;2.90;;;2.80;99.90;;;1.03;100.00;98320.88;4883850;28;20029;-79
2021/11/30 08:25:27;;;;;;;6.38;2.78;;;2.80;99.90;;;1.03;100.00;98318.28;4933924;28;20618;-79
2021/11/30 08:28:01;;;;;;;6.03;2.72;;;2.80;99.90;;;1.08;100.00;98309.44;4925377;28;20029;-80
2021/11/30 08:30:28;;;;;;;4.40;2.90;;;;;;;1.14;100.00;98304.81;4916807;28;21625;-79
2021/11/30 08:32:54;;;;;;;6.28;2.38;;;2.90;99.90;;;1.20;100.00;98303.69;4936063;28;20030;-80
2021/11/30 08:35:20;;;;;;;6.15;3.20;;;3.00;99.90;;;1.22;100.00;98283.72;4916363;28;20041;-81
2021/11/30 08:37:51;;;;;;;4.65;2.58;;;3.00;99.90;;;1.31;100.00;98291.06;4909005;28;20034;-80
2021/11/30 08:40:17;;;;;;;4.05;2.58;;;3.10;99.90;;;1.33;100.00;98294.41;4933643;28;20026;-80
2021/11/30 08:42:43;;;;;;;3.25;2.15;;;3.10;99.90;;;1.36;100.00;98288.25;4905557;28;20037;-81
2021/11/30 08:45:11;;;;;;;5.88;3.22;;;3.10;99.90;;;1.36;100.00;98309.84;4920382;28;20057;-81
2021/11/30 08:47:46;;;;;;;3.33;2.45;;;3.20;99.90;;;1.41;100.00;98312.22;4950161;28;20068;-80
2021/11/30 08:50:18;;;;;;;5.18;2.90;;;3.10;99.90;;;1.40;100.00;98306.19;4929798;28;20025;-80
2021/11/30 08:52:49;;;;;;;7.18;2.20;;;3.20;99.90;;;1.46;100.00;98299.03;4888673;28;20036;-80
2021/11/30 08:55:16;;;;;;;4.57;2.67;;;3.20;99.90;;;1.49;100.00;98309.25;4937326;28;20429;-79
2021/11/30 08:57:42;;;;;;;4.22;2.70;;;3.30;99.90;;;1.59;100.00;98321.69;4951995;28;20621;-80
2021/11/30 09:00:18;;;;;;;4.10;2.20;;;3.30;99.90;;;1.59;100.00;98305.28;4919272;28;21037;-80
2021/11/30 09:02:45;;;;;;;;;;;3.40;99.90;;;1.68;100.00;98298.81;4894521;28;20026;-80
2021/11/30 09:05:22;;;;;;;2.85;1.23;;;3.50;99.90;;;1.74;100.00;98288.97;4958841;28;20373;-80
2021/11/30 09:07:59;;;;;;;1.45;0.90;;;3.50;99.90;;;1.83;100.00;98285.06;4961446;28;20061;-80
2021/11/30 09:10:38;;;;;;;4.45;1.20;;;3.60;99.90;;;1.85;100.00;98278.88;4912593;28;20113;-85
2021/11/30 09:13:07;;;;;;;3.83;1.17;;;3.60;99.90;;;1.98;100.00;98296.44;4926327;28;20120;-79
2021/11/30 09:15:34;;;;;;;3.22;0.90;;;3.70;99.90;;;2.10;100.00;98298.44;4944217;28;20565;-81
2021/11/30 09:18:00;;;;;;;2.50;0.90;;;3.90;99.90;;;2.30;100.00;98301.78;4930491;28;20022;-80
2021/11/30 09:20:34;;;;;;;3.22;1.70;;;4.00;99.90;;;2.35;100.00;98294.56;4943346;28;20060;-80
2021/11/30 09:23:04;;;;;;;4.85;1.58;;;4.00;99.90;;;2.35;100.00;98289.38;4984913;28;20152;-80
2021/11/30 09:25:37;;;;;;;7.38;1.65;;;4.00;99.90;;;2.34;100.00;98287.72;4930620;28;20045;-80
2021/11/30 09:28:04;;;;;;;4.40;1.63;;;4.00;99.90;;;2.36;100.00;98288.47;4919761;28;20105;-80
2021/11/30 09:30:38;;;;;;;7.70;1.98;;;4.00;99.90;;;2.34;100.00;98275.56;4935831;28;20032;-79
2021/11/30 09:33:11;;;;;;;5.55;1.70;;;4.10;99.90;;;2.39;100.00;98264.94;4931697;28;20033;-80
2021/11/30 09:35:49;;;;;;;6.45;1.05;;;4.20;99.90;;;2.48;100.00;98280.03;4933745;28;20045;-80
2021/11/30 09:38:22;;;;;;;9.23;1.83;;;4.20;99.90;;;2.57;100.00;98281.28;4971245;28;20026;-80
2021/11/30 09:40:51;;;;;;;4.47;1.23;;;4.30;99.90;;;2.65;100.00;98295.56;4962321;28;20029;-80
2021/11/30 09:43:36;;;;;;;9.18;1.10;;;4.30;99.90;;;2.57;100.00;98305.53;4935955;28;20026;-85
2021/11/30 09:46:13;;;;;;;6.03;0.80;;;;;;;2.49;100.00;98325.88;4931793;28;20687;-82
2021/11/30 09:48:52;;;;;;;1.45;0.43;;;;;;;2.51;100.00;98331.81;4953558;28;20168;-82
2021/11/30 09:51:20;;;;;;;1.10;0.50;;;;;;;2.47;100.00;98325.13;4968415;28;20025;-78
2021/11/30 09:53:51;;;;;;;6.90;1.13;;;4.20;99.90;;;2.45;100.00;98296.59;4992905;28;20040;-79
2021/11/30 09:56:17;;;;;;;4.38;1.00;;;4.20;99.90;;;2.36;100.00;98273.72;4911867;28;20080;-79
2021/11/30 09:58:44;;;;;;;4.00;0.68;;;4.20;99.90;;;2.38;100.00;98284.03;4979169;28;20703;-80
2021/11/30 10:01:12;;;;;;;12.70;0.73;;;4.20;99.90;;;2.42;100.00;98280.38;4956560;28;20105;-79
2021/11/30 10:03:50;;;;;;;17.55;0.98;;;4.20;99.90;;;2.38;100.00;98278.84;4961968;28;20033;-80
2021/11/30 10:06:26;;;;;;;1.75;0.38;;;4.20;99.90;;;2.44;100.00;98275.91;4955803;28;20067;-80
2021/11/30 10:08:55;;;;;;;4.47;0.30;;;4.20;99.90;;;2.51;100.00;98305.84;4928834;28;20034;-80
2021/11/30 10:11:37;;;;;;;2.22;0.30;;;4.30;99.90;;;2.44;100.00;98288.88;4918891;28;20021;-80
2021/11/30 10:14:27;;;;;;;4.43;1.00;;;4.10;99.90;;;2.43;100.00;98315.78;4949232;28;20037;-80
2021/11/30 10:17:22;;;;;;;5.53;1.02;;;4.10;99.90;;;2.36;100.00;98254.72;4937296;28;20029;-79
2021/11/30 10:20:51;;;;;;;7.40;1.00;;;4.10;99.90;;;2.37;100.00;98225.22;4964978;28;20025;-81
2021/11/30 10:23:50;;;;;;;4.50;0.52;;;;;;;2.41;100.00;98257.91;4948790;28;20609;-85
2021/11/30 10:26:40;;;;;;;;;;;;;;;;;;;;;
2021/11/30 10:29:23;;;;;;;17.45;1.20;;;;;;;2.30;100.00;98275.81;4942082;28;20188;-86
2021/11/30 10:32:01;;;;;;;9.68;0.75;;;;;;;2.38;100.00;98287.47;4942234;28;20040;-88
2021/11/30 10:34:30;;;;;;;7.25;0.60;;;;;;;2.62;100.00;98294.91;4957769;28;20026;-85
2021/11/30 10:37:25;;;;;;;5.93;0.80;;;4.40;99.90;;;2.73;100.00;98302.13;4997219;28;20041;-86
2021/11/30 10:40:05;;;;;;;9.95;0.93;;;4.50;99.90;;;2.78;100.00;98313.94;4921978;28;20025;-82
2021/11/30 10:42:32;;;;;;;7.65;1.13;;;4.50;99.90;;;2.74;100.00;98307.22;4923847;28;20025;-83
2021/11/30 10:45:04;;;;;;;5.85;0.65;;;4.50;99.90;;;2.70;100.00;98297.06;4927542;28;20033;-82
2021/11/30 10:47:36;;;;;;;5.85;0.65;;;4.40;99.90;;;2.70;100.00;98313.53;4896183;28;20048;-84
2021/11/30 10:50:23;;;;;;;16.33;1.38;;;4.40;99.90;;;2.73;100.00;98328.94;4958793;28;20033;-82